createdAt,value
2022-11-26T00:00:48.069Z,17.00
2022-11-26T00:01:48.072Z,16.10
2022-11-26T00:02:48.110Z,17.30
2022-11-26T00:03:48.022Z,16.80
2022-11-26T00:04:48.014Z,15.80
2022-11-26T00:05:48.002Z,16.60
2022-11-26T00:06:48.011Z,15.30
2022-11-26T00:07:48.039Z,15.90
2022-11-26T00:08:47.981Z,15.60
2022-11-26T00:09:47.987Z,14.70
2022-11-26T00:10:47.955Z,16.10
2022-11-26T00:11:47.943Z,16.30
2022-11-26T00:12:47.932Z,14.80
2022-11-26T00:13:47.921Z,15.20
2022-11-26T00:14:47.948Z,16.50
2022-11-26T00:15:47.902Z,16.30
2022-11-26T00:16:48.024Z,14.80
2022-11-26T00:17:48.247Z,15.90
2022-11-26T00:18:47.908Z,14.90
2022-11-26T00:19:47.885Z,15.10
2022-11-26T00:20:47.874Z,15.10
2022-11-26T00:21:47.849Z,15.70
2022-11-26T00:22:47.848Z,15.20
2022-11-26T00:23:47.867Z,15.90
2022-11-26T00:24:47.829Z,15.90
2022-11-26T00:25:47.815Z,15.30
2022-11-26T00:26:47.806Z,15.80
2022-11-26T00:27:47.800Z,16.40
2022-11-26T00:28:47.836Z,16.90
2022-11-26T00:29:47.776Z,16.30
2022-11-26T00:30:47.764Z,17.10
2022-11-26T00:31:47.858Z,16.10
2022-11-26T00:32:47.762Z,16.70
2022-11-26T00:33:47.752Z,16.70
2022-11-26T00:34:47.717Z,17.20
2022-11-26T00:35:47.708Z,16.70
2022-11-26T00:36:47.728Z,17.60
2022-11-26T00:37:47.704Z,17.20
2022-11-26T00:38:47.736Z,16.30
2022-11-26T00:39:47.674Z,18.50
2022-11-26T00:40:47.667Z,16.90
2022-11-26T00:41:47.679Z,17.30
2022-11-26T00:42:47.650Z,17.80
2022-11-26T00:43:47.619Z,17.20
2022-11-26T00:44:47.624Z,17.30
2022-11-26T00:45:47.739Z,17.60
2022-11-26T00:46:47.624Z,18.70
2022-11-26T00:47:47.597Z,16.30
2022-11-26T00:48:47.589Z,17.90
2022-11-26T00:49:47.575Z,18.40
2022-11-26T00:50:47.586Z,18.40
2022-11-26T00:51:47.597Z,18.50
2022-11-26T00:52:47.575Z,17.90
2022-11-26T00:53:47.551Z,19.10
2022-11-26T00:54:47.527Z,18.60
2022-11-26T00:55:47.522Z,18.60
2022-11-26T00:56:47.522Z,18.10
2022-11-26T00:57:47.566Z,18.30
2022-11-26T00:58:47.493Z,17.70
2022-11-26T00:59:47.485Z,18.90
2022-11-26T01:00:47.511Z,17.60
2022-11-26T01:01:47.540Z,17.20
2022-11-26T01:02:47.465Z,19.00
2022-11-26T01:03:47.455Z,18.40
2022-11-26T01:04:47.450Z,18.00
2022-11-26T01:05:47.424Z,18.00
2022-11-26T01:06:47.444Z,18.20
2022-11-26T01:07:47.516Z,16.60
2022-11-26T01:08:47.402Z,17.40
2022-11-26T01:09:47.401Z,17.20
2022-11-26T01:10:47.376Z,16.60
2022-11-26T01:11:52.381Z,20.30
2022-11-26T01:12:49.357Z,19.60
2022-11-26T01:13:47.367Z,20.60
2022-11-26T01:14:47.348Z,19.30
2022-11-26T01:15:47.355Z,19.20
2022-11-26T01:16:47.422Z,19.10
2022-11-26T01:17:47.320Z,18.80
2022-11-26T01:18:47.328Z,21.30
2022-11-26T01:19:47.301Z,19.40
2022-11-26T01:20:47.286Z,19.30
2022-11-26T01:21:47.344Z,20.30
2022-11-26T01:22:47.263Z,19.70
2022-11-26T01:23:47.316Z,18.80
2022-11-26T01:24:48.245Z,19.10
2022-11-26T01:25:47.248Z,19.00
2022-11-26T01:26:47.236Z,18.30
2022-11-26T01:27:47.246Z,17.10
2022-11-26T01:28:47.218Z,16.30
2022-11-26T01:29:47.227Z,16.40
2022-11-26T01:30:47.207Z,17.60
2022-11-26T01:31:47.351Z,18.60
2022-11-26T01:32:47.197Z,17.70
2022-11-26T01:33:47.182Z,18.10
2022-11-26T01:34:47.153Z,16.80
2022-11-26T01:35:47.141Z,17.20
2022-11-26T01:36:47.142Z,19.30
2022-11-26T01:37:47.153Z,17.70
2022-11-26T01:38:47.123Z,18.80
2022-11-26T01:39:47.105Z,19.70
2022-11-26T01:40:47.108Z,18.10
2022-11-26T01:41:47.087Z,20.60
2022-11-26T01:42:47.104Z,17.60
2022-11-26T01:43:47.075Z,18.60
2022-11-26T01:44:47.069Z,17.80
2022-11-26T01:45:47.117Z,17.90
2022-11-26T01:46:47.050Z,19.10
2022-11-26T01:47:47.034Z,19.30
2022-11-26T01:48:47.097Z,17.80
2022-11-26T01:49:47.009Z,19.60
2022-11-26T01:50:47.004Z,19.40
2022-11-26T01:51:46.989Z,19.40
2022-11-26T01:52:46.987Z,18.50
2022-11-26T01:53:47.020Z,19.90
2022-11-26T01:54:46.962Z,17.80
2022-11-26T01:55:46.965Z,17.30
2022-11-26T01:56:46.950Z,17.50
2022-11-26T01:57:46.928Z,18.10
2022-11-26T01:58:46.916Z,17.40
2022-11-26T01:59:46.940Z,17.90
2022-11-26T02:00:46.968Z,16.20
2022-11-26T02:01:46.935Z,17.40
2022-11-26T02:02:47.002Z,17.50
2022-11-26T02:03:46.895Z,16.40
2022-11-26T02:04:46.876Z,17.20
2022-11-26T02:05:46.856Z,17.20
2022-11-26T02:06:46.844Z,16.70
2022-11-26T02:07:46.916Z,17.00
2022-11-26T02:08:46.894Z,17.90
2022-11-26T02:09:46.825Z,17.20
2022-11-26T02:10:46.811Z,18.50
2022-11-26T02:11:46.813Z,16.80
2022-11-26T02:12:46.802Z,16.90
2022-11-26T02:13:46.784Z,16.20
2022-11-26T02:14:46.805Z,15.00
2022-11-26T02:15:46.780Z,16.60
2022-11-26T02:16:46.821Z,15.90
2022-11-26T02:17:46.751Z,16.00
2022-11-26T02:18:46.750Z,17.00
2022-11-26T02:19:46.722Z,16.70
2022-11-26T02:20:46.722Z,16.30
2022-11-26T02:21:46.715Z,17.00
2022-11-26T02:22:46.705Z,16.50
2022-11-26T02:23:46.722Z,15.70
2022-11-26T02:24:46.678Z,16.40
2022-11-26T02:25:46.724Z,17.00
2022-11-26T02:26:46.691Z,16.10
2022-11-26T02:27:46.694Z,16.60
2022-11-26T02:28:46.651Z,16.80
2022-11-26T02:29:46.673Z,16.80
2022-11-26T02:30:46.613Z,15.40
2022-11-26T02:31:46.682Z,16.90
2022-11-26T02:32:46.594Z,16.60
2022-11-26T02:33:46.626Z,15.20
2022-11-26T02:34:46.575Z,16.30
2022-11-26T02:35:46.561Z,15.60
2022-11-26T02:36:46.578Z,15.10
2022-11-26T02:37:46.584Z,15.80
2022-11-26T02:38:46.550Z,16.30
2022-11-26T02:39:46.539Z,17.20
2022-11-26T02:40:46.515Z,19.80
2022-11-26T02:41:46.508Z,25.50
2022-11-26T02:42:46.505Z,20.80
2022-11-26T02:43:46.510Z,17.10
2022-11-26T02:44:46.496Z,17.20
2022-11-26T02:45:47.519Z,18.00
2022-11-26T02:46:46.460Z,18.10
2022-11-26T02:47:46.465Z,17.30
2022-11-26T02:48:46.444Z,15.80
2022-11-26T02:49:46.453Z,16.50
2022-11-26T02:50:46.426Z,16.40
2022-11-26T02:51:46.410Z,16.20
2022-11-26T02:52:46.398Z,16.50
2022-11-26T02:53:46.393Z,16.50
2022-11-26T02:54:46.394Z,16.30
2022-11-26T02:55:46.401Z,15.60
2022-11-26T02:56:46.360Z,15.90
2022-11-26T02:57:46.352Z,16.60
2022-11-26T02:58:46.340Z,16.00
2022-11-26T02:59:46.330Z,14.80
2022-11-26T03:00:46.403Z,15.90
2022-11-26T03:01:46.312Z,15.90
2022-11-26T03:02:46.302Z,15.30
2022-11-26T03:03:46.348Z,16.20
2022-11-26T03:04:46.296Z,16.70
2022-11-26T03:05:46.291Z,16.00
2022-11-26T03:06:46.268Z,16.90
2022-11-26T03:07:46.328Z,16.10
2022-11-26T03:08:46.247Z,15.60
2022-11-26T03:09:46.293Z,16.00
2022-11-26T03:10:46.220Z,15.70
2022-11-26T03:11:46.306Z,15.10
2022-11-26T03:12:46.222Z,15.80
2022-11-26T03:13:46.203Z,15.60
2022-11-26T03:16:13.804Z,15.50
2022-11-26T03:17:13.744Z,15.70
2022-11-26T03:18:14.845Z,15.20
2022-11-26T03:19:14.855Z,16.10
2022-11-26T03:20:14.835Z,87.90
2022-11-26T03:21:14.815Z,163.80
2022-11-26T03:22:14.825Z,106.80
2022-11-26T03:23:14.795Z,50.20
2022-11-26T03:24:14.791Z,29.90
2022-11-26T03:25:14.778Z,33.40
2022-11-26T03:26:14.782Z,37.50
2022-11-26T03:27:14.769Z,18.40
2022-11-26T03:28:14.753Z,24.10
2022-11-26T03:29:14.735Z,18.70
2022-11-26T03:30:14.737Z,18.30
2022-11-26T03:31:14.754Z,16.90
2022-11-26T03:32:14.744Z,16.60
2022-11-26T03:33:14.694Z,18.40
2022-11-26T03:34:14.686Z,22.80
2022-11-26T03:35:14.678Z,47.00
2022-11-26T03:36:14.670Z,79.00
2022-11-26T03:37:14.681Z,58.20
2022-11-26T03:38:14.646Z,49.10
2022-11-26T03:39:14.642Z,38.70
2022-11-26T03:40:14.633Z,32.90
2022-11-26T03:41:14.615Z,42.30
2022-11-26T03:42:14.621Z,72.00
2022-11-26T03:43:14.595Z,60.30
2022-11-26T03:44:14.603Z,56.80
2022-11-26T03:45:14.576Z,63.20
2022-11-26T03:46:14.602Z,49.80
2022-11-26T03:47:14.581Z,50.70
2022-11-26T03:48:14.534Z,82.10
2022-11-26T03:49:14.543Z,78.50
2022-11-26T03:50:14.532Z,62.20
2022-11-26T03:51:14.511Z,35.90
2022-11-26T03:52:14.525Z,33.10
2022-11-26T03:53:14.498Z,22.00
2022-11-26T03:54:14.503Z,19.40
2022-11-26T03:55:14.473Z,18.70
2022-11-26T03:56:14.463Z,17.80
2022-11-26T03:57:14.454Z,19.90
2022-11-26T03:58:14.451Z,17.80
2022-11-26T03:59:14.455Z,18.80
2022-11-26T04:00:14.420Z,18.30
2022-11-26T04:01:14.491Z,19.70
2022-11-26T04:02:14.413Z,18.70
2022-11-26T04:03:14.420Z,19.90
2022-11-26T04:04:14.407Z,18.50
2022-11-26T04:05:14.379Z,18.50
2022-11-26T04:06:14.361Z,19.00
2022-11-26T04:07:14.451Z,19.60
2022-11-26T04:08:14.351Z,18.80
2022-11-26T04:09:14.357Z,19.70
2022-11-26T04:10:14.326Z,20.30
2022-11-26T04:11:14.329Z,20.40
2022-11-26T04:12:14.303Z,19.60
2022-11-26T04:13:14.314Z,18.00
2022-11-26T04:14:14.289Z,21.00
2022-11-26T04:15:14.285Z,18.90
2022-11-26T04:16:14.284Z,20.90
2022-11-26T04:17:15.278Z,18.70
2022-11-26T04:18:14.254Z,18.90
2022-11-26T04:19:14.236Z,20.50
2022-11-26T04:20:14.258Z,24.40
2022-11-26T04:21:14.223Z,26.60
2022-11-26T04:22:14.211Z,35.30
2022-11-26T04:23:14.217Z,27.50
2022-11-26T04:24:14.213Z,32.30
2022-11-26T04:25:14.184Z,24.50
2022-11-26T04:26:14.177Z,20.90
2022-11-26T04:27:14.165Z,28.20
2022-11-26T04:28:14.154Z,24.50
2022-11-26T04:29:14.171Z,22.70
2022-11-26T04:30:14.127Z,23.00
2022-11-26T04:31:14.184Z,22.10
2022-11-26T04:32:14.118Z,26.20
2022-11-26T04:33:14.134Z,22.90
2022-11-26T04:34:14.094Z,31.10
2022-11-26T04:35:14.084Z,25.10
2022-11-26T04:36:14.075Z,32.50
2022-11-26T04:37:14.064Z,38.90
2022-11-26T04:38:14.075Z,33.00
2022-11-26T04:39:14.048Z,54.30
2022-11-26T04:40:14.052Z,49.50
2022-11-26T04:41:14.036Z,62.30
2022-11-26T04:42:14.025Z,51.50
2022-11-26T04:43:14.029Z,55.30
2022-11-26T04:44:14.010Z,45.60
2022-11-26T04:45:14.004Z,50.40
2022-11-26T04:46:14.018Z,43.30
2022-11-26T04:47:13.986Z,46.50
2022-11-26T04:48:13.960Z,36.30
2022-11-26T04:49:13.976Z,49.10
2022-11-26T04:50:13.967Z,39.40
2022-11-26T04:51:13.925Z,38.90
2022-11-26T04:52:13.919Z,37.00
2022-11-26T04:53:13.906Z,40.10
2022-11-26T04:54:13.896Z,40.80
2022-11-26T04:55:13.912Z,38.60
2022-11-26T04:56:13.896Z,35.20
2022-11-26T04:57:13.900Z,38.00
2022-11-26T04:58:13.858Z,26.60
2022-11-26T04:59:13.881Z,28.50
2022-11-26T05:00:13.838Z,23.60
2022-11-26T05:01:13.863Z,18.70
2022-11-26T05:02:13.896Z,27.80
2022-11-26T05:03:13.808Z,23.30
2022-11-26T05:04:13.810Z,21.40
2022-11-26T05:05:13.797Z,31.70
2022-11-26T05:06:13.790Z,22.80
2022-11-26T05:07:13.814Z,25.50
2022-11-26T05:08:13.762Z,17.40
2022-11-26T05:09:13.847Z,18.10
2022-11-26T05:10:13.772Z,23.90
2022-11-26T05:11:13.741Z,19.40
2022-11-26T05:12:13.748Z,19.20
2022-11-26T05:13:14.307Z,16.70
2022-11-26T05:14:13.706Z,21.30
2022-11-26T05:15:13.707Z,14.40
2022-11-26T05:16:13.738Z,18.60
2022-11-26T05:17:13.678Z,18.00
2022-11-26T05:18:13.703Z,18.70
2022-11-26T05:19:13.655Z,18.80
2022-11-26T05:20:13.660Z,16.00
2022-11-26T05:21:13.629Z,20.70
2022-11-26T05:22:13.629Z,17.80
2022-11-26T05:23:13.632Z,19.20
2022-11-26T05:24:13.617Z,20.90
2022-11-26T05:25:13.630Z,20.90
2022-11-26T05:26:13.584Z,26.60
2022-11-26T05:27:13.581Z,33.10
2022-11-26T05:28:13.603Z,35.10
2022-11-26T05:29:13.565Z,36.90
2022-11-26T05:30:13.543Z,30.40
2022-11-26T05:31:13.643Z,20.50
2022-11-26T05:32:13.524Z,23.10
2022-11-26T05:33:13.543Z,21.10
2022-11-26T05:34:13.512Z,24.10
2022-11-26T05:35:13.506Z,24.70
2022-11-26T05:36:13.519Z,23.10
2022-11-26T05:37:13.472Z,29.50
2022-11-26T05:38:13.477Z,28.40
2022-11-26T05:39:13.460Z,46.50
2022-11-26T05:40:13.454Z,43.40
2022-11-26T05:41:13.462Z,51.30
2022-11-26T05:42:13.429Z,22.50
2022-11-26T05:43:13.423Z,28.10
2022-11-26T05:44:13.459Z,18.20
2022-11-26T05:45:13.412Z,32.10
2022-11-26T05:46:13.442Z,17.50
2022-11-26T05:47:13.391Z,32.80
2022-11-26T05:48:13.378Z,36.70
2022-11-26T05:49:13.388Z,22.00
2022-11-26T05:50:13.351Z,22.50
2022-11-26T05:51:13.342Z,16.50
2022-11-26T05:52:13.340Z,18.60
2022-11-26T05:53:13.313Z,18.40
2022-11-26T05:54:13.302Z,19.60
2022-11-26T05:55:13.310Z,15.30
2022-11-26T05:56:13.290Z,17.30
2022-11-26T05:57:13.285Z,24.10
2022-11-26T05:58:13.270Z,33.90
2022-11-26T05:59:13.261Z,28.90
2022-11-26T06:00:13.263Z,23.50
2022-11-26T06:01:13.241Z,28.00
2022-11-26T06:02:13.354Z,23.80
2022-11-26T06:03:17.059Z,21.00
2022-11-26T06:04:14.214Z,16.40
2022-11-26T06:05:13.202Z,14.70
2022-11-26T06:06:13.198Z,17.90
2022-11-26T06:07:13.225Z,15.20
2022-11-26T06:08:13.194Z,13.10
2022-11-26T06:09:13.158Z,22.40
2022-11-26T06:10:13.190Z,19.80
2022-11-26T06:11:13.131Z,16.80
2022-11-26T06:12:14.133Z,24.90
2022-11-26T06:13:13.118Z,20.50
2022-11-26T06:14:13.120Z,17.50
2022-11-26T06:15:13.097Z,22.10
2022-11-26T06:16:13.160Z,14.60
2022-11-26T06:17:13.103Z,15.20
2022-11-26T06:18:13.067Z,21.40
2022-11-26T06:19:13.068Z,23.10
2022-11-26T06:20:13.059Z,17.70
2022-11-26T06:21:13.036Z,15.40
2022-11-26T06:22:13.039Z,13.90
2022-11-26T06:23:13.024Z,12.80
2022-11-26T06:24:13.011Z,12.60
2022-11-26T06:25:13.026Z,13.50
2022-11-26T06:26:12.985Z,13.00
2022-11-26T06:27:12.984Z,16.50
2022-11-26T06:28:12.984Z,13.20
2022-11-26T06:29:12.973Z,12.30
2022-11-26T06:30:12.968Z,11.50
2022-11-26T06:31:13.016Z,14.60
2022-11-26T06:32:12.933Z,12.80
2022-11-26T06:33:12.929Z,15.90
2022-11-26T06:34:12.914Z,13.30
2022-11-26T06:35:12.903Z,11.70
2022-11-26T06:36:12.914Z,14.00
2022-11-26T06:37:12.884Z,19.80
2022-11-26T06:38:12.877Z,18.20
2022-11-26T06:39:12.897Z,16.20
2022-11-26T06:40:12.865Z,18.00
2022-11-26T06:41:12.850Z,15.70
2022-11-26T06:42:12.839Z,13.60
2022-11-26T06:43:12.819Z,14.20
2022-11-26T06:44:12.828Z,12.80
2022-11-26T06:45:12.806Z,14.50
2022-11-26T06:46:12.875Z,19.70
2022-11-26T06:47:12.795Z,16.70
2022-11-26T06:48:12.779Z,21.80
2022-11-26T06:49:12.825Z,19.30
2022-11-26T06:50:12.749Z,23.70
2022-11-26T06:51:12.757Z,25.70
2022-11-26T06:52:12.733Z,22.40
2022-11-26T06:53:12.727Z,34.20
2022-11-26T06:54:12.733Z,31.60
2022-11-26T06:55:12.711Z,28.40
2022-11-26T06:56:18.037Z,16.60
2022-11-26T06:57:14.686Z,15.50
2022-11-26T06:58:12.681Z,18.90
2022-11-26T06:59:12.671Z,17.80
2022-11-26T07:00:12.657Z,16.70
2022-11-26T07:01:12.703Z,24.30
2022-11-26T07:02:12.684Z,16.10
2022-11-26T07:03:12.633Z,25.30
2022-11-26T07:04:12.639Z,25.90
2022-11-26T07:05:12.615Z,22.30
2022-11-26T07:06:12.595Z,17.90
2022-11-26T07:07:12.641Z,20.00
2022-11-26T07:08:12.580Z,20.80
2022-11-26T07:09:12.584Z,19.30
2022-11-26T07:10:12.564Z,17.60
2022-11-26T07:11:12.559Z,17.30
2022-11-26T07:12:12.539Z,16.60
2022-11-26T07:13:12.540Z,17.10
2022-11-26T07:14:12.548Z,21.50
2022-11-26T07:15:12.522Z,20.10
2022-11-26T07:16:12.567Z,15.40
2022-11-26T07:17:12.482Z,16.80
2022-11-26T07:18:12.492Z,17.80
2022-11-26T07:19:12.516Z,17.20
2022-11-26T07:20:12.471Z,20.50
2022-11-26T07:21:12.460Z,18.70
2022-11-26T07:22:12.472Z,18.30
2022-11-26T07:23:12.444Z,20.10
2022-11-26T07:24:12.428Z,35.30
2022-11-26T07:25:13.032Z,23.10
2022-11-26T07:26:13.400Z,26.10
2022-11-26T07:27:12.399Z,27.30
2022-11-26T07:28:12.383Z,18.40
2022-11-26T07:29:12.371Z,29.70
2022-11-26T07:30:12.374Z,51.10
2022-11-26T07:31:16.580Z,21.70
2022-11-26T07:32:12.337Z,50.30
2022-11-26T07:33:12.326Z,29.40
2022-11-26T07:34:12.348Z,38.60
2022-11-26T07:35:12.319Z,73.70
2022-11-26T07:36:12.303Z,92.90
2022-11-26T07:37:12.292Z,70.70
2022-11-26T07:38:12.286Z,62.70
2022-11-26T07:39:12.288Z,86.60
2022-11-26T07:40:12.266Z,90.50
2022-11-26T07:41:12.253Z,39.90
2022-11-26T07:42:12.262Z,36.70
2022-11-26T07:43:12.230Z,49.80
2022-11-26T07:44:12.243Z,42.40
2022-11-26T07:45:12.232Z,34.30
2022-11-26T07:46:12.276Z,59.30
2022-11-26T07:47:12.196Z,38.60
2022-11-26T07:48:16.711Z,32.90
2022-11-26T07:49:13.173Z,28.30
2022-11-26T07:50:12.173Z,34.50
2022-11-26T07:51:13.163Z,40.60
2022-11-26T07:52:12.141Z,32.10
2022-11-26T07:53:12.140Z,36.70
2022-11-26T07:54:12.144Z,41.00
2022-11-26T07:55:12.723Z,17.10
2022-11-26T07:56:13.113Z,13.50
2022-11-26T07:57:12.119Z,21.40
2022-11-26T07:58:12.089Z,36.70
2022-11-26T07:59:12.080Z,32.50
2022-11-26T08:00:12.079Z,63.30
2022-11-26T08:01:12.213Z,55.60
2022-11-26T08:02:12.051Z,34.60
2022-11-26T08:03:12.044Z,21.60
2022-11-26T08:04:12.022Z,15.80
2022-11-26T08:05:12.036Z,17.40
2022-11-26T08:06:12.073Z,22.50
2022-11-26T08:07:16.083Z,22.30
2022-11-26T08:08:13.114Z,17.00
2022-11-26T08:09:11.985Z,16.30
2022-11-26T08:10:11.986Z,27.60
2022-11-26T08:11:11.958Z,16.90
2022-11-26T08:12:11.953Z,18.70
2022-11-26T08:13:11.939Z,15.60
2022-11-26T08:14:11.952Z,16.20
2022-11-26T08:15:11.920Z,19.40
2022-11-26T08:16:11.936Z,16.20
2022-11-26T08:17:11.923Z,12.40
2022-11-26T08:18:11.888Z,15.60
2022-11-26T08:19:11.884Z,14.50
2022-11-26T08:20:11.903Z,13.60
2022-11-26T08:21:11.865Z,17.60
2022-11-26T08:22:11.842Z,26.70
2022-11-26T08:23:11.837Z,26.70
2022-11-26T08:24:11.837Z,18.90
2022-11-26T08:25:11.845Z,21.50
2022-11-26T08:27:13.822Z,21.40
2022-11-26T08:28:11.788Z,16.40
2022-11-26T08:29:11.803Z,18.80
2022-11-26T08:30:11.797Z,19.20
2022-11-26T08:31:11.800Z,13.50
2022-11-26T08:32:11.762Z,28.20
2022-11-26T08:33:11.742Z,23.10
2022-11-26T08:34:11.742Z,19.60
2022-11-26T08:35:11.746Z,16.90
2022-11-26T08:36:11.742Z,31.00
2022-11-26T08:37:11.713Z,21.50
2022-11-26T08:38:11.693Z,14.70
2022-11-26T08:39:11.693Z,25.00
2022-11-26T08:40:13.928Z,14.00
2022-11-26T08:41:12.690Z,13.70
2022-11-26T08:42:11.669Z,13.40
2022-11-26T08:43:11.652Z,17.30
2022-11-26T08:44:11.676Z,13.60
2022-11-26T08:45:11.630Z,22.90
2022-11-26T08:46:11.708Z,15.80
2022-11-26T08:47:11.641Z,14.30
2022-11-26T08:48:11.592Z,13.40
2022-11-26T08:49:11.585Z,13.10
2022-11-26T08:50:11.576Z,15.30
2022-11-26T08:51:11.565Z,14.90
2022-11-26T08:52:11.578Z,17.80
2022-11-26T08:53:11.549Z,16.70
2022-11-26T08:54:11.542Z,14.50
2022-11-26T08:55:11.518Z,13.20
2022-11-26T08:56:12.519Z,13.10
2022-11-26T08:57:11.529Z,15.70
2022-11-26T08:58:11.521Z,17.20
2022-11-26T08:59:11.504Z,14.00
2022-11-26T09:00:11.484Z,11.90
2022-11-26T09:01:11.519Z,12.30
2022-11-26T09:02:14.802Z,12.50
2022-11-26T09:03:13.517Z,12.80
2022-11-26T09:04:11.432Z,12.70
2022-11-26T09:05:11.427Z,13.20
2022-11-26T09:06:11.411Z,13.80
2022-11-26T09:07:11.482Z,13.50
2022-11-26T09:08:11.399Z,15.00
2022-11-26T09:09:11.397Z,15.30
2022-11-26T09:10:11.392Z,15.40
2022-11-26T09:11:11.363Z,14.20
2022-11-26T09:12:11.364Z,12.90
2022-11-26T09:13:11.353Z,14.60
2022-11-26T09:14:11.340Z,14.30
2022-11-26T09:15:11.352Z,14.50
2022-11-26T09:16:43.296Z,13.70
2022-11-26T09:17:11.318Z,14.80
2022-11-26T09:18:11.311Z,14.80
2022-11-26T09:19:11.291Z,14.30
2022-11-26T09:20:11.301Z,13.80
2022-11-26T09:21:11.265Z,14.20
2022-11-26T09:22:11.308Z,15.40
2022-11-26T09:23:11.252Z,14.50
2022-11-26T09:24:11.256Z,14.80
2022-11-26T09:25:12.310Z,15.40
2022-11-26T09:26:11.219Z,16.20
2022-11-26T09:27:11.216Z,16.10
2022-11-26T09:28:11.203Z,17.40
2022-11-26T09:29:12.207Z,17.40
2022-11-26T09:30:11.183Z,17.70
2022-11-26T09:31:11.188Z,15.10
2022-11-26T09:32:31.155Z,16.80
2022-11-26T09:33:13.149Z,15.80
2022-11-26T09:34:11.131Z,15.50
2022-11-26T09:35:11.142Z,16.60
2022-11-26T09:36:11.121Z,15.90
2022-11-26T09:37:11.119Z,14.80
2022-11-26T09:38:11.126Z,15.80
2022-11-26T09:39:11.096Z,14.30
2022-11-26T09:40:11.079Z,14.80
2022-11-26T09:41:11.082Z,15.30
2022-11-26T09:42:11.079Z,16.20
2022-11-26T09:43:11.081Z,15.90
2022-11-26T09:44:11.029Z,17.20
2022-11-26T09:45:12.039Z,16.60
2022-11-26T09:46:11.099Z,17.00
2022-11-26T09:47:12.828Z,16.70
2022-11-26T09:48:12.024Z,17.00
2022-11-26T09:49:10.999Z,17.90
2022-11-26T09:50:11.010Z,15.50
2022-11-26T09:51:10.989Z,16.70
2022-11-26T09:52:10.999Z,16.00
2022-11-26T09:53:10.965Z,15.70
2022-11-26T09:54:11.012Z,17.00
2022-11-26T09:55:11.005Z,16.20
2022-11-26T09:56:10.940Z,15.90
2022-11-26T09:57:10.910Z,17.40
2022-11-26T09:58:10.905Z,16.70
2022-11-26T09:59:10.909Z,16.50
2022-11-26T10:00:10.895Z,17.20
2022-11-26T10:01:10.949Z,16.30
2022-11-26T10:02:10.909Z,16.30
2022-11-26T10:03:10.871Z,15.60
2022-11-26T10:04:10.860Z,16.60
2022-11-26T10:05:10.869Z,17.70
2022-11-26T10:06:10.851Z,19.10
2022-11-26T10:07:10.850Z,20.30
2022-11-26T10:08:10.827Z,19.30
2022-11-26T10:09:10.808Z,18.30
2022-11-26T10:10:10.807Z,18.40
2022-11-26T10:11:10.788Z,17.90
2022-11-26T10:12:24.452Z,17.10
2022-11-26T10:13:19.108Z,17.40
2022-11-26T10:14:12.760Z,17.90
2022-11-26T10:15:10.760Z,17.60
2022-11-26T10:16:10.808Z,17.30
2022-11-26T10:17:10.721Z,16.80
2022-11-26T10:18:10.714Z,15.60
2022-11-26T10:19:10.711Z,16.60
2022-11-26T10:20:10.695Z,16.00
2022-11-26T10:21:10.705Z,16.80
2022-11-26T10:22:10.676Z,15.90
2022-11-26T10:23:10.648Z,15.00
2022-11-26T10:24:10.649Z,14.40
2022-11-26T10:25:10.683Z,14.30
2022-11-26T10:26:10.640Z,16.00
2022-11-26T10:27:11.635Z,18.20
2022-11-26T10:28:10.631Z,16.90
2022-11-26T10:29:10.608Z,17.50
2022-11-26T10:30:10.609Z,16.10
2022-11-26T10:31:10.679Z,16.70
2022-11-26T10:32:10.599Z,15.50
2022-11-26T10:33:10.554Z,14.90
2022-11-26T10:34:10.544Z,14.90
2022-11-26T10:35:10.543Z,15.60
2022-11-26T10:36:10.539Z,16.10
2022-11-26T10:37:10.539Z,15.30
2022-11-26T10:38:10.526Z,16.00
2022-11-26T10:39:10.515Z,16.30
2022-11-26T10:40:10.500Z,15.20
2022-11-26T10:41:10.486Z,16.20
2022-11-26T10:42:10.475Z,15.20
2022-11-26T10:43:10.492Z,16.00
2022-11-26T10:44:10.467Z,15.40
2022-11-26T10:45:12.309Z,15.40
2022-11-26T10:46:11.448Z,16.60
2022-11-26T10:47:10.444Z,19.00
2022-11-26T10:48:10.440Z,20.00
2022-11-26T10:49:10.424Z,15.60
2022-11-26T10:50:31.815Z,16.20
2022-11-26T10:51:12.416Z,15.90
2022-11-26T10:52:10.380Z,16.50
2022-11-26T10:53:10.413Z,16.40
2022-11-26T10:54:10.354Z,16.70
2022-11-26T10:55:10.350Z,15.20
2022-11-26T10:56:10.350Z,16.70
2022-11-26T10:57:10.329Z,15.40
2022-11-26T10:58:10.351Z,15.90
2022-11-26T10:59:10.302Z,16.50
2022-11-26T11:00:10.317Z,16.90
2022-11-26T11:01:10.406Z,16.40
2022-11-26T11:02:10.332Z,17.60
2022-11-26T11:03:10.264Z,16.40
2022-11-26T11:04:10.311Z,17.40
2022-11-26T11:05:10.251Z,17.10
2022-11-26T11:06:10.240Z,16.10
2022-11-26T11:07:12.074Z,17.00
2022-11-26T11:08:10.221Z,17.00
2022-11-26T11:09:10.205Z,16.00
2022-11-26T11:10:10.198Z,16.70
2022-11-26T11:11:10.212Z,17.30
2022-11-26T11:12:10.176Z,17.30
2022-11-26T11:13:10.179Z,17.10
2022-11-26T11:14:10.157Z,17.00
2022-11-26T11:15:10.165Z,16.40
2022-11-26T11:16:10.191Z,17.50
2022-11-26T11:17:10.160Z,17.10
2022-11-26T11:18:10.114Z,17.30
2022-11-26T11:19:10.122Z,16.80
2022-11-26T11:20:10.089Z,16.80
2022-11-26T11:21:10.080Z,16.00
2022-11-26T11:22:10.096Z,16.60
2022-11-26T11:23:10.063Z,16.30
2022-11-26T11:24:10.076Z,16.10
2022-11-26T11:25:10.094Z,15.60
2022-11-26T11:26:10.040Z,15.10
2022-11-26T11:27:10.035Z,14.80
2022-11-26T11:28:12.359Z,15.00
2022-11-26T11:29:11.008Z,15.50
2022-11-26T11:30:09.992Z,15.00
2022-11-26T11:31:10.003Z,14.50
2022-11-26T11:32:09.984Z,14.50
2022-11-26T11:33:09.987Z,14.30
2022-11-26T11:34:09.971Z,14.00
2022-11-26T11:35:09.945Z,14.80
2022-11-26T11:36:09.941Z,14.90
2022-11-26T11:37:14.415Z,15.00
2022-11-26T11:38:10.913Z,15.00
2022-11-26T11:39:09.897Z,13.70
2022-11-26T11:40:13.024Z,13.50
2022-11-26T11:41:10.868Z,14.80
2022-11-26T11:42:09.859Z,15.40
2022-11-26T11:43:09.870Z,14.30
2022-11-26T11:44:09.843Z,13.40
2022-11-26T11:45:09.837Z,14.10
2022-11-26T11:46:10.006Z,13.30
2022-11-26T11:47:09.833Z,13.20
2022-11-26T11:48:09.803Z,14.40
2022-11-26T11:49:09.799Z,12.80
2022-11-26T11:50:09.786Z,13.50
2022-11-26T11:51:09.779Z,12.80
2022-11-26T11:52:09.782Z,12.70
2022-11-26T11:53:09.752Z,13.30
2022-11-26T11:54:09.758Z,13.00
2022-11-26T11:55:09.741Z,12.30
2022-11-26T11:56:09.764Z,13.10
2022-11-26T11:57:09.715Z,12.30
2022-11-26T11:58:09.726Z,11.90
2022-11-26T11:59:09.693Z,12.10
2022-11-26T12:00:09.692Z,12.10
2022-11-26T12:01:09.678Z,11.50
2022-11-26T12:02:09.687Z,12.80
2022-11-26T12:03:10.698Z,12.10
2022-11-26T12:04:15.053Z,12.00
2022-11-26T12:05:11.738Z,12.20
2022-11-26T12:06:09.629Z,12.30
2022-11-26T12:07:09.637Z,12.90
2022-11-26T12:08:09.603Z,12.30
2022-11-26T12:09:10.612Z,12.70
2022-11-26T12:10:09.593Z,13.20
2022-11-26T12:11:09.581Z,13.00
2022-11-26T12:12:09.569Z,8.60
2022-11-26T12:13:09.566Z,11.10
2022-11-26T12:14:09.569Z,11.20
2022-11-26T12:15:09.543Z,10.90
2022-11-26T12:16:09.548Z,10.40
2022-11-26T12:17:09.524Z,10.30
2022-11-26T12:18:09.516Z,10.20
2022-11-26T12:19:09.505Z,11.30
2022-11-26T12:20:09.519Z,12.50
2022-11-26T12:21:09.478Z,10.50
2022-11-26T12:22:09.459Z,10.60
2022-11-26T12:23:13.186Z,9.40
2022-11-26T12:24:11.450Z,8.60
2022-11-26T12:25:09.449Z,9.10
2022-11-26T12:26:09.427Z,9.10
2022-11-26T12:27:09.424Z,9.30
2022-11-26T12:28:09.413Z,8.40
2022-11-26T12:29:09.424Z,8.40
2022-11-26T12:30:09.410Z,8.80
2022-11-26T12:31:09.394Z,8.90
2022-11-26T12:32:09.412Z,9.00
2022-11-26T12:33:09.358Z,8.50
2022-11-26T12:34:09.343Z,8.40
2022-11-26T12:35:09.357Z,8.40
2022-11-26T12:36:09.325Z,8.00
2022-11-26T12:37:09.308Z,7.70
2022-11-26T12:38:09.306Z,8.50
2022-11-26T12:39:09.294Z,8.00
2022-11-26T12:40:09.292Z,7.70
2022-11-26T12:41:09.296Z,7.70
2022-11-26T12:42:09.270Z,8.70
2022-11-26T12:43:09.263Z,8.40
2022-11-26T12:44:09.251Z,9.00
2022-11-26T12:45:13.334Z,8.70
2022-11-26T12:46:09.308Z,8.90
2022-11-26T12:47:09.213Z,8.40
2022-11-26T12:48:09.209Z,8.30
2022-11-26T12:49:09.188Z,18.70
2022-11-26T12:50:09.176Z,27.70
2022-11-26T12:51:09.182Z,13.20
2022-11-26T12:52:09.171Z,43.60
2022-11-26T12:53:09.143Z,10.20
2022-11-26T12:54:09.150Z,9.60
2022-11-26T12:55:09.154Z,14.30
2022-11-26T12:56:09.131Z,8.40